Time;durP1;ratioP1;P1;durP2;ratioP2;P2;SDS_P1;SDS_P2;PMS_P1;PMS_P2;Temp;Humidity;BMP_temperature;BMP_pressure;BME280_temperature;BME280_humidity;BME280_pressure;Samples;Min_cycle;Max_cycle;Signal;HPM_P1;HPM_P2
2022/07/25 00:00:37;;;;;;;3.03;2.83;;;;;;;;;;5059907;28;20244;-17
2022/07/25 00:03:06;;;;;;;2.97;2.72;;;;;;;;;;5067439;28;20295;-16
2022/07/25 00:05:37;;;;;;;4.18;3.20;;;;;;;;;;5070658;28;20230;-17
2022/07/25 00:08:05;;;;;;;3.40;3.10;;;;;;;;;;5053421;28;20707;-17
2022/07/25 00:10:32;;;;;;;3.38;3.08;;;;;;;;;;5045322;28;20235;-17
2022/07/25 00:12:59;;;;;;;3.28;2.78;;;;;;;;;;5045871;28;21026;-17
2022/07/25 00:15:27;;;;;;;3.70;2.72;;;;;;;;;;5067207;28;20264;-16
2022/07/25 00:17:54;;;;;;;3.67;3.10;;;;;;;;;;5056568;28;20999;-17
2022/07/25 00:20:23;;;;;;;5.03;2.65;;;;;;;;;;5050200;28;20226;-17
2022/07/25 00:22:50;;;;;;;3.45;3.15;;;;;;;;;;5050428;28;20365;-17
2022/07/25 00:25:18;;;;;;;3.63;3.13;;;;;;;;;;5068025;28;20320;-17
2022/07/25 00:27:45;;;;;;;3.17;2.88;;;;;;;;;;5070460;28;20234;-17
2022/07/25 00:30:13;;;;;;;2.92;2.72;;;;;;;;;;5071618;28;20937;-17
2022/07/25 00:32:40;;;;;;;3.28;2.97;;;;;;;;;;5067290;28;20226;-17
2022/07/25 00:35:08;;;;;;;2.90;2.70;;;;;;;;;;5053556;28;20245;-17
2022/07/25 00:37:36;;;;;;;3.17;2.88;;;;;;;;;;5070793;28;20234;-17
2022/07/25 00:40:04;;;;;;;3.85;3.10;;;;;;;;;;5059857;28;21073;-17
2022/07/25 00:42:31;;;;;;;2.83;2.63;;;;;;;;;;5057562;28;21053;-17
2022/07/25 00:44:59;;;;;;;4.18;3.70;;;;;;;;;;5065339;28;20236;-17
2022/07/25 00:47:27;;;;;;;3.65;3.30;;;;;;;;;;5052645;28;20238;-17
2022/07/25 00:49:54;;;;;;;3.65;3.35;;;;;;;;;;5053180;28;20669;-17
2022/07/25 00:52:22;;;;;;;3.45;3.10;;;;;;;;;;5053057;28;20713;-17
2022/07/25 00:54:51;;;;;;;4.40;3.17;;;;;;;;;;5053592;28;20245;-16
2022/07/25 00:57:18;;;;;;;4.65;3.22;;;;;;;;;;5052715;28;20317;-17
2022/07/25 00:59:46;;;;;;;3.63;3.33;;;;;;;;;;5053248;28;20309;-16
2022/07/25 01:02:13;;;;;;;3.38;3.08;;;;;;;;;;5052425;28;20234;-16
2022/07/25 01:04:41;;;;;;;3.42;3.13;;;;;;;;;;5053168;28;20233;-16
2022/07/25 01:07:08;;;;;;;3.20;2.90;;;;;;;;;;5053091;28;20230;-17
2022/07/25 01:09:35;;;;;;;3.55;3.25;;;;;;;;;;5038480;28;20234;-16
2022/07/25 01:12:05;;;;;;;3.70;3.40;;;;;;;;;;5044468;28;20688;-16
2022/07/25 01:14:32;;;;;;;4.72;3.50;;;;;;;;;;5054712;28;20715;-17
2022/07/25 01:16:59;;;;;;;3.85;3.55;;;;;;;;;;5059972;28;20234;-16
2022/07/25 01:19:27;;;;;;;3.10;2.90;;;;;;;;;;5051078;28;20226;-16
2022/07/25 01:21:56;;;;;;;3.50;3.20;;;;;;;;;;5051231;28;20234;-16
2022/07/25 01:24:23;;;;;;;3.83;3.38;;;;;;;;;;5052198;28;20226;-17
2022/07/25 01:26:50;;;;;;;3.72;3.42;;;;;;;;;;5052900;28;20244;-17
2022/07/25 01:29:18;;;;;;;4.40;3.75;;;;;;;;;;5052862;28;20248;-17
2022/07/25 01:31:45;;;;;;;4.00;3.70;;;;;;;;;;5046134;28;20633;-16
2022/07/25 01:34:12;;;;;;;3.90;3.60;;;;;;;;;;5052165;28;20270;-17
2022/07/25 01:36:40;;;;;;;5.35;3.30;;;;;;;;;;5052872;28;20232;-17
2022/07/25 01:39:08;;;;;;;3.70;3.40;;;;;;;;;;5052586;28;20233;-17
2022/07/25 01:41:36;;;;;;;4.25;3.85;;;;;;;;;;5049113;28;20240;-17
2022/07/25 01:44:03;;;;;;;3.95;3.55;;;;;;;;;;5052746;28;20225;-17
2022/07/25 01:46:31;;;;;;;3.72;3.42;;;;;;;;;;5050977;28;20264;-17
2022/07/25 01:48:59;;;;;;;3.45;3.15;;;;;;;;;;5052578;28;21242;-17
2022/07/25 01:51:26;;;;;;;4.05;3.63;;;;;;;;;;5052514;28;20681;-16
2022/07/25 01:53:54;;;;;;;3.92;3.47;;;;;;;;;;5052497;28;20230;-17
2022/07/25 01:56:22;;;;;;;3.60;3.30;;;;;;;;;;5052167;28;20317;-17
2022/07/25 01:58:50;;;;;;;4.78;4.10;;;;;;;;;;5052355;28;20436;-17
2022/07/25 02:01:17;;;;;;;3.88;3.58;;;;;;;;;;5052382;28;21206;-17
2022/07/25 02:03:48;;;;;;;4.00;3.55;;;;;;;;;;5052264;28;20258;-16
2022/07/25 02:06:15;;;;;;;5.07;3.95;;;;;;;;;;5051466;28;20226;-16
2022/07/25 02:08:42;;;;;;;3.95;3.55;;;;;;;;;;5050329;28;20246;-17
2022/07/25 02:11:10;;;;;;;4.65;4.25;;;;;;;;;;5051410;28;20230;-16
2022/07/25 02:13:39;;;;;;;4.22;3.80;;;;;;;;;;5052005;28;20260;-17
2022/07/25 02:16:06;;;;;;;4.25;3.90;;;;;;;;;;5052099;28;20234;-17
2022/07/25 02:18:33;;;;;;;5.40;3.70;;;;;;;;;;5051650;28;20968;-17
2022/07/25 02:21:01;;;;;;;4.38;4.00;;;;;;;;;;5068457;22;20244;-13
2022/07/25 02:23:28;;;;;;;6.95;3.80;;;;;;;;;;5072645;28;21274;-14
2022/07/25 02:25:55;;;;;;;4.15;3.85;;;;;;;;;;5072655;28;21040;-14
2022/07/25 02:28:23;;;;;;;4.65;3.95;;;;;;;;;;5072738;28;21064;-14
2022/07/25 02:30:51;;;;;;;4.53;4.07;;;;;;;;;;5073212;28;20990;-14
2022/07/25 02:33:19;;;;;;;3.92;3.63;;;;;;;;;;5059209;28;20234;-14
2022/07/25 02:35:46;;;;;;;4.43;4.03;;;;;;;;;;5071946;28;20237;-14
2022/07/25 02:38:18;;;;;;;4.90;4.38;;;;;;;;;;5071805;28;20229;-14
2022/07/25 02:40:45;;;;;;;4.82;4.03;;;;;;;;;;5067947;28;20324;-14
2022/07/25 02:43:13;;;;;;;5.32;4.20;;;;;;;;;;5071941;28;20390;-14
2022/07/25 02:45:41;;;;;;;4.60;4.22;;;;;;;;;;5072139;28;20234;-14
2022/07/25 02:48:10;;;;;;;5.18;4.35;;;;;;;;;;5071876;28;20254;-14
2022/07/25 02:50:38;;;;;;;4.65;4.20;;;;;;;;;;5071184;28;20229;-14
2022/07/25 02:53:05;;;;;;;4.63;4.22;;;;;;;;;;5070677;28;20329;-14
2022/07/25 02:55:32;;;;;;;4.97;4.57;;;;;;;;;;5071591;28;20237;-14
2022/07/25 02:58:00;;;;;;;5.13;4.68;;;;;;;;;;5071557;28;20229;-14
2022/07/25 03:00:28;;;;;;;4.80;4.30;;;;;;;;;;5071005;28;20776;-14
2022/07/25 03:02:55;;;;;;;4.85;4.45;;;;;;;;;;5071425;28;20320;-14
2022/07/25 03:05:24;;;;;;;5.18;4.78;;;;;;;;;;5068185;28;20226;-14
2022/07/25 03:07:52;;;;;;;4.85;4.45;;;;;;;;;;5061089;28;20241;-13
2022/07/25 03:10:19;;;;;;;5.32;4.82;;;;;;;;;;5071459;28;20259;-14
2022/07/25 03:12:47;;;;;;;4.90;4.18;;;;;;;;;;5070648;28;20977;-14
2022/07/25 03:15:14;;;;;;;5.47;4.97;;;;;;;;;;5071670;28;20229;-14
2022/07/25 03:17:41;;;;;;;5.47;4.97;;;;;;;;;;5071613;28;20237;-14
2022/07/25 03:20:09;;;;;;;4.97;4.55;;;;;;;;;;5071332;28;20225;-13
2022/07/25 03:22:38;;;;;;;5.55;4.93;;;;;;;;;;5065598;28;20249;-14
2022/07/25 03:25:05;;;;;;;5.40;4.90;;;;;;;;;;5062384;28;20237;-13
2022/07/25 03:27:47;;;;;;;5.00;4.60;;;;;;;;;;5056957;28;20240;-14
2022/07/25 03:30:14;;;;;;;5.63;4.93;;;;;;;;;;5059150;28;20234;-14
2022/07/25 03:32:42;;;;;;;5.55;5.05;;;;;;;;;;5068280;28;20226;-14
2022/07/25 03:35:09;;;;;;;5.35;4.85;;;;;;;;;;5061902;28;20238;-14
2022/07/25 03:37:38;;;;;;;5.72;5.18;;;;;;;;;;5067008;28;20299;-14
2022/07/25 03:40:06;;;;;;;5.40;4.90;;;;;;;;;;5044310;28;20619;-14
2022/07/25 03:42:34;;;;;;;5.70;5.20;;;;;;;;;;5065518;28;20239;-13
2022/07/25 03:45:02;;;;;;;5.93;5.43;;;;;;;;;;5071193;28;20229;-13
2022/07/25 03:47:29;;;;;;;5.82;5.32;;;;;;;;;;5063612;28;21458;-14
2022/07/25 03:49:56;;;;;;;5.80;5.20;;;;;;;;;;5070103;28;20248;-14
2022/07/25 03:52:24;;;;;;;6.07;5.57;;;;;;;;;;5070810;28;20231;-14
2022/07/25 03:54:52;;;;;;;5.80;5.30;;;;;;;;;;5070693;28;20233;-13
2022/07/25 03:57:20;;;;;;;5.93;5.32;;;;;;;;;;5059997;28;20237;-13
2022/07/25 03:59:47;;;;;;;6.10;5.50;;;;;;;;;;5052580;28;20237;-14
2022/07/25 04:02:15;;;;;;;6.90;5.82;;;;;;;;;;5061256;28;20229;-15
2022/07/25 04:04:42;;;;;;;5.97;5.47;;;;;;;;;;5069930;28;20328;-13
2022/07/25 04:07:09;;;;;;;5.97;5.47;;;;;;;;;;5069427;28;20256;-14
2022/07/25 04:09:37;;;;;;;6.15;5.55;;;;;;;;;;5033536;28;20317;-14
2022/07/25 04:12:06;;;;;;;6.35;5.78;;;;;;;;;;5044980;28;20242;-14
2022/07/25 04:14:33;;;;;;;6.72;6.05;;;;;;;;;;5061798;28;20248;-14
2022/07/25 04:17:00;;;;;;;6.95;5.93;;;;;;;;;;5058052;28;20733;-13
2022/07/25 04:19:28;;;;;;;5.82;5.32;;;;;;;;;;5068790;28;20230;-14
2022/07/25 04:21:55;;;;;;;5.60;5.13;;;;;;;;;;5069889;28;20251;-14
2022/07/25 04:24:23;;;;;;;6.55;5.95;;;;;;;;;;5061633;28;20898;-14
2022/07/25 04:26:50;;;;;;;6.10;5.53;;;;;;;;;;5051006;28;20226;-14
2022/07/25 04:29:19;;;;;;;6.38;5.78;;;;;;;;;;5068461;28;20864;-14
2022/07/25 04:31:46;;;;;;;8.43;6.22;;;;;;;;;;5060031;28;20230;-14
2022/07/25 04:34:14;;;;;;;7.63;6.40;;;;;;;;;;5068235;28;20234;-14
2022/07/25 04:36:41;;;;;;;6.20;5.70;;;;;;;;;;5058306;28;20712;-14
2022/07/25 04:39:09;;;;;;;5.97;5.47;;;;;;;;;;5051579;28;20234;-14
2022/07/25 04:41:36;;;;;;;6.30;5.80;;;;;;;;;;5056500;28;20949;-14
2022/07/25 04:44:06;;;;;;;6.82;6.15;;;;;;;;;;5070328;28;20240;-14
2022/07/25 04:46:35;;;;;;;6.55;5.95;;;;;;;;;;5063082;28;20229;-14
2022/07/25 04:49:02;;;;;;;6.78;6.18;;;;;;;;;;5070118;28;20252;-14
2022/07/25 04:51:30;;;;;;;6.88;6.28;;;;;;;;;;5065813;28;20433;-14
2022/07/25 04:53:57;;;;;;;7.47;6.75;;;;;;;;;;5060452;28;20234;-13
2022/07/25 04:56:24;;;;;;;7.10;6.40;;;;;;;;;;5070043;28;20357;-14
2022/07/25 04:58:52;;;;;;;5.95;5.45;;;;;;;;;;5070033;28;20232;-14
2022/07/25 05:01:19;;;;;;;6.53;5.93;;;;;;;;;;5063748;28;20237;-14
2022/07/25 05:03:48;;;;;;;5.80;5.30;;;;;;;;;;5048835;28;20230;-14
2022/07/25 05:06:16;;;;;;;7.10;6.45;;;;;;;;;;5049602;28;20270;-14
2022/07/25 05:08:44;;;;;;;7.00;6.28;;;;;;;;;;5049114;28;20280;-14
2022/07/25 05:11:11;;;;;;;6.68;6.07;;;;;;;;;;5048991;28;20694;-14
2022/07/25 05:13:38;;;;;;;6.45;5.93;;;;;;;;;;5049679;28;20739;-14
2022/07/25 05:16:06;;;;;;;6.78;6.18;;;;;;;;;;5051713;28;20309;-14
2022/07/25 05:18:34;;;;;;;7.75;6.88;;;;;;;;;;5053148;28;20227;-14
2022/07/25 05:21:02;;;;;;;7.20;6.47;;;;;;;;;;5052275;28;20331;-14
2022/07/25 05:23:30;;;;;;;7.65;6.88;;;;;;;;;;5052968;28;20230;-14
2022/07/25 05:25:57;;;;;;;6.93;5.95;;;;;;;;;;5052185;28;20317;-14
2022/07/25 05:28:24;;;;;;;7.25;6.63;;;;;;;;;;5052476;28;20238;-14
2022/07/25 05:30:52;;;;;;;6.78;6.18;;;;;;;;;;5064701;28;20234;-14
2022/07/25 05:33:19;;;;;;;7.22;6.53;;;;;;;;;;5064674;28;20977;-14
2022/07/25 05:35:47;;;;;;;6.68;6.07;;;;;;;;;;5053360;28;20241;-14
2022/07/25 05:38:15;;;;;;;7.35;6.65;;;;;;;;;;5066842;28;20690;-14
2022/07/25 05:40:44;;;;;;;6.57;5.88;;;;;;;;;;5046194;28;20717;-14
2022/07/25 05:43:12;;;;;;;7.10;6.50;;;;;;;;;;5066937;28;20226;-14
2022/07/25 05:45:39;;;;;;;7.00;6.40;;;;;;;;;;5052702;28;20222;-14
2022/07/25 05:48:06;;;;;;;7.03;6.43;;;;;;;;;;5058056;28;20244;-14
2022/07/25 05:50:34;;;;;;;6.80;6.20;;;;;;;;;;5072972;28;21010;-14
2022/07/25 05:53:01;;;;;;;7.18;6.53;;;;;;;;;;5058047;28;20232;-14
2022/07/25 05:55:30;;;;;;;7.88;7.13;;;;;;;;;;5073113;28;20230;-14
2022/07/25 05:57:57;;;;;;;6.57;5.97;;;;;;;;;;5065920;28;20259;-14
2022/07/25 06:00:25;;;;;;;7.90;6.78;;;;;;;;;;5065003;28;20238;-14
2022/07/25 06:02:52;;;;;;;7.40;6.70;;;;;;;;;;5066329;28;20236;-14
2022/07/25 06:05:20;;;;;;;7.15;6.47;;;;;;;;;;5072501;28;20316;-14
2022/07/25 06:07:47;;;;;;;6.75;6.13;;;;;;;;;;5058713;28;20325;-14
2022/07/25 06:10:14;;;;;;;9.38;6.95;;;;;;;;;;5055113;28;20328;-14
2022/07/25 06:12:43;;;;;;;8.45;6.85;;;;;;;;;;5072564;28;20225;-14
2022/07/25 06:15:11;;;;;;;7.68;6.70;;;;;;;;;;5071107;28;20734;-16
2022/07/25 06:17:46;;;;;;;7.68;6.90;;;;;;;;;;5062561;28;20287;-14
2022/07/25 06:20:13;;;;;;;8.48;6.93;;;;;;;;;;5061945;28;20244;-14
2022/07/25 06:22:40;;;;;;;7.32;6.63;;;;;;;;;;5060445;28;20245;-14
2022/07/25 06:25:08;;;;;;;7.15;6.53;;;;;;;;;;5072335;28;20320;-14
2022/07/25 06:27:36;;;;;;;7.43;6.72;;;;;;;;;;5064539;28;20234;-14
2022/07/25 06:30:06;;;;;;;7.85;7.00;;;;;;;;;;5065367;28;20237;-14
2022/07/25 06:32:45;;;;;;;7.78;6.97;;;;;;;;;;5049649;28;20710;-14
2022/07/25 06:35:13;;;;;;;6.90;6.25;;;;;;;;;;5061898;28;20229;-14
2022/07/25 06:37:40;;;;;;;7.82;7.03;;;;;;;;;;5055153;28;20230;-14
2022/07/25 06:40:08;;;;;;;7.68;6.60;;;;;;;;;;5058512;28;20236;-14
2022/07/25 06:42:37;;;;;;;7.68;6.93;;;;;;;;;;5058821;28;20668;-14
2022/07/25 06:45:08;;;;;;;7.57;6.85;;;;;;;;;;5064829;28;20256;-14
2022/07/25 06:47:35;;;;;;;7.20;6.50;;;;;;;;;;5065625;28;20273;-14
2022/07/25 06:50:04;;;;;;;8.75;7.47;;;;;;;;;;5037623;28;20241;-14
2022/07/25 06:52:33;;;;;;;7.60;6.75;;;;;;;;;;5060080;28;20237;-14
2022/07/25 06:55:01;;;;;;;7.50;6.80;;;;;;;;;;5070926;28;20239;-14
2022/07/25 06:57:28;;;;;;;7.63;6.45;;;;;;;;;;5071743;28;20233;-14
2022/07/25 06:59:55;;;;;;;7.38;6.63;;;;;;;;;;5071911;28;20230;-14
2022/07/25 07:02:24;;;;;;;9.23;7.13;;;;;;;;;;5062485;28;20232;-14
2022/07/25 07:04:51;;;;;;;7.75;6.95;;;;;;;;;;5058242;28;20233;-14
2022/07/25 07:07:19;;;;;;;7.32;6.50;;;;;;;;;;5062547;28;20233;-14
2022/07/25 07:09:46;;;;;;;7.57;6.88;;;;;;;;;;5065576;28;20735;-14
2022/07/25 07:12:14;;;;;;;8.00;7.20;;;;;;;;;;5051481;28;20305;-14
2022/07/25 07:14:43;;;;;;;8.43;7.38;;;;;;;;;;5059203;28;20285;-14
2022/07/25 07:17:10;;;;;;;7.90;7.00;;;;;;;;;;5058597;28;20239;-14
2022/07/25 07:19:43;;;;;;;8.77;7.05;;;;;;;;;;5071618;28;20225;-14
2022/07/25 07:22:10;;;;;;;9.38;6.88;;;;;;;;;;5056912;28;20245;-14
2022/07/25 07:24:39;;;;;;;8.57;6.53;;;;;;;;;;5064998;28;20259;-14
2022/07/25 07:27:11;;;;;;;7.75;6.22;;;;;;;;;;5053469;28;20229;-14
2022/07/25 07:29:38;;;;;;;8.82;6.88;;;;;;;;;;5055223;28;20988;-14
2022/07/25 07:32:06;;;;;;;7.13;6.43;;;;;;;;;;5062840;28;20320;-14
2022/07/25 07:34:33;;;;;;;7.40;6.70;;;;;;;;;;5056906;28;20367;-14
2022/07/25 07:37:02;;;;;;;7.13;6.43;;;;;;;;;;5055431;28;20233;-14
2022/07/25 07:39:30;;;;;;;8.43;6.40;;;;;;;;;;5049959;28;20227;-14
2022/07/25 07:41:57;;;;;;;7.35;6.60;;;;;;;;;;5051105;28;20262;-14
2022/07/25 07:44:24;;;;;;;11.10;6.57;;;;;;;;;;5051019;28;20237;-14
2022/07/25 07:46:52;;;;;;;7.10;6.13;;;;;;;;;;5051100;28;20222;-14
2022/07/25 07:49:19;;;;;;;8.70;6.75;;;;;;;;;;5050307;28;20880;-14
2022/07/25 07:51:47;;;;;;;7.72;6.82;;;;;;;;;;5050610;28;20238;-14
2022/07/25 07:57:00;;;;;;;7.45;6.75;;;;;;;;;;5050191;28;20233;-14
2022/07/25 07:59:27;;;;;;;7.95;7.15;;;;;;;;;;5050184;28;20693;-14
2022/07/25 08:01:55;;;;;;;7.28;6.57;;;;;;;;;;5050829;28;20242;-14
2022/07/25 08:04:23;;;;;;;10.55;6.97;;;;;;;;;;5050933;28;20244;-14
2022/07/25 08:06:50;;;;;;;8.98;6.53;;;;;;;;;;5051092;28;20226;-14
2022/07/25 08:09:19;;;;;;;7.57;6.40;;;;;;;;;;5044542;28;20241;-14
2022/07/25 08:11:46;;;;;;;6.90;6.20;;;;;;;;;;5050234;28;20230;-14
2022/07/25 08:14:13;;;;;;;7.22;6.35;;;;;;;;;;5050537;28;20249;-14
2022/07/25 08:16:41;;;;;;;7.97;6.93;;;;;;;;;;5050451;28;20234;-14
2022/07/25 08:19:08;;;;;;;7.38;6.60;;;;;;;;;;5050765;28;20233;-14
2022/07/25 08:21:36;;;;;;;7.20;6.32;;;;;;;;;;5048982;28;20241;-14
2022/07/25 08:24:03;;;;;;;8.55;6.43;;;;;;;;;;5050429;28;20719;-14
2022/07/25 08:26:35;;;;;;;6.95;6.25;;;;;;;;;;5050475;28;20257;-14
2022/07/25 08:29:03;;;;;;;6.85;6.20;;;;;;;;;;5051864;28;20234;-14
2022/07/25 08:31:46;;;;;;;6.75;6.10;;;;;;;;;;5059617;28;20240;-14
2022/07/25 08:34:13;;;;;;;6.95;6.30;;;;;;;;;;5052149;28;20291;-14
2022/07/25 08:36:41;;;;;;;6.85;6.07;;;;;;;;;;5062553;28;20237;-14
2022/07/25 08:39:09;;;;;;;8.07;5.60;;;;;;;;;;5048481;28;20329;-14
2022/07/25 08:41:39;;;;;;;6.93;5.97;;;;;;;;;;5064127;28;20230;-14
2022/07/25 08:44:06;;;;;;;7.78;5.80;;;;;;;;;;5066320;28;20230;-14
2022/07/25 08:46:34;;;;;;;6.57;5.97;;;;;;;;;;5055446;28;20232;-14
2022/07/25 08:49:02;;;;;;;6.20;5.60;;;;;;;;;;5070120;28;20233;-14
2022/07/25 08:51:29;;;;;;;9.27;6.10;;;;;;;;;;5072733;28;20241;-14
2022/07/25 08:53:56;;;;;;;6.38;5.78;;;;;;;;;;5065986;28;20241;-14
2022/07/25 08:56:24;;;;;;;6.93;5.85;;;;;;;;;;5070133;28;20685;-14
2022/07/25 08:58:57;;;;;;;6.18;5.38;;;;;;;;;;5073975;28;20833;-14
2022/07/25 09:01:25;;;;;;;6.60;5.55;;;;;;;;;;5064100;28;20244;-16
2022/07/25 09:03:56;;;;;;;6.40;5.80;;;;;;;;;;5073898;28;20229;-14
2022/07/25 09:06:23;;;;;;;6.20;5.60;;;;;;;;;;5068737;28;20225;-14
2022/07/25 09:08:54;;;;;;;6.60;6.00;;;;;;;;;;5054169;28;20240;-14
2022/07/25 09:11:28;;;;;;;6.80;5.38;;;;;;;;;;5072910;28;20237;-14
2022/07/25 09:14:04;;;;;;;5.35;4.80;;;;;;;;;;5047027;28;20232;-14
2022/07/25 09:16:34;;;;;;;5.60;5.05;;;;;;;;;;5060456;28;20230;-14
2022/07/25 09:19:11;;;;;;;6.55;5.32;;;;;;;;;;5073603;28;20237;-14
2022/07/25 09:21:39;;;;;;;5.65;5.13;;;;;;;;;;5072762;28;20245;-15
2022/07/25 09:24:07;;;;;;;5.63;5.10;;;;;;;;;;5073563;28;20237;-14
2022/07/25 09:26:42;;;;;;;5.03;4.60;;;;;;;;;;5068666;28;20257;-14
2022/07/25 09:29:16;;;;;;;5.43;4.93;;;;;;;;;;5045346;28;20802;-14
2022/07/25 09:31:44;;;;;;;5.10;4.60;;;;;;;;;;5068665;28;20826;-14
2022/07/25 09:34:12;;;;;;;5.82;4.97;;;;;;;;;;5073311;28;20235;-14
2022/07/25 09:36:42;;;;;;;4.53;4.13;;;;;;;;;;5064925;28;20226;-14
2022/07/25 09:39:09;;;;;;;4.57;4.18;;;;;;;;;;5064989;28;20226;-14
2022/07/25 09:41:37;;;;;;;7.78;4.70;;;;;;;;;;5073088;28;20237;-14
2022/07/25 09:44:14;;;;;;;5.50;4.13;;;;;;;;;;5072862;28;20312;-14
2022/07/25 09:46:43;;;;;;;4.38;3.97;;;;;;;;;;5065978;28;20287;-14
2022/07/25 09:49:13;;;;;;;4.93;4.20;;;;;;;;;;5063540;28;20240;-14
2022/07/25 09:51:40;;;;;;;4.80;3.80;;;;;;;;;;5058161;28;20237;-14
2022/07/25 09:54:08;;;;;;;4.40;4.00;;;;;;;;;;5072904;28;20234;-14
2022/07/25 09:56:36;;;;;;;4.88;3.92;;;;;;;;;;5072747;28;20269;-14
2022/07/25 09:59:03;;;;;;;3.72;3.30;;;;;;;;;;5072942;28;20233;-14
2022/07/25 10:01:34;;;;;;;3.78;3.38;;;;;;;;;;5058272;28;20254;-14
2022/07/25 10:04:05;;;;;;;3.58;3.28;;;;;;;;;;5072636;28;20240;-14
2022/07/25 10:06:34;;;;;;;4.03;3.38;;;;;;;;;;5072529;28;20225;-14
2022/07/25 10:09:02;;;;;;;4.65;3.50;;;;;;;;;;5045853;28;20234;-14
2022/07/25 10:11:30;;;;;;;3.15;2.85;;;;;;;;;;5054861;28;20230;-14
2022/07/25 10:13:57;;;;;;;3.40;2.90;;;;;;;;;;5058994;28;20742;-14
2022/07/25 10:16:25;;;;;;;3.70;3.15;;;;;;;;;;5061084;28;20230;-14
2022/07/25 10:18:53;;;;;;;3.35;2.85;;;;;;;;;;5066547;28;20234;-14
2022/07/25 10:21:22;;;;;;;3.92;2.85;;;;;;;;;;5061174;28;20245;-14
2022/07/25 10:24:01;;;;;;;6.88;3.30;;;;;;;;;;5071243;28;21037;-14
2022/07/25 10:26:28;;;;;;;3.20;2.90;;;;;;;;;;5071808;28;20770;-14
2022/07/25 10:28:56;;;;;;;5.22;2.70;;;;;;;;;;5053757;28;20238;-14
2022/07/25 10:31:25;;;;;;;3.63;3.00;;;;;;;;;;5067370;28;20240;-14
2022/07/25 10:33:53;;;;;;;5.22;2.90;;;;;;;;;;5069963;28;20229;-14
2022/07/25 10:36:22;;;;;;;3.22;2.88;;;;;;;;;;5058002;28;20713;-14
2022/07/25 10:38:53;;;;;;;4.15;2.55;;;;;;;;;;5054839;28;20240;-14
2022/07/25 10:41:24;;;;;;;3.00;2.47;;;;;;;;;;5070745;28;20236;-14
2022/07/25 10:43:52;;;;;;;3.53;2.53;;;;;;;;;;5064625;28;20230;-14
2022/07/25 10:46:21;;;;;;;3.03;2.72;;;;;;;;;;5062069;28;20860;-14
2022/07/25 10:48:56;;;;;;;3.20;2.40;;;;;;;;;;5072071;28;20233;-14
2022/07/25 10:51:27;;;;;;;2.53;2.33;;;;;;;;;;5071231;28;20229;-14
2022/07/25 10:53:54;;;;;;;3.00;2.13;;;;;;;;;;5061804;28;20230;-14
2022/07/25 10:56:22;;;;;;;2.47;2.10;;;;;;;;;;5052743;28;20240;-14
2022/07/25 10:58:50;;;;;;;2.55;2.20;;;;;;;;;;5063393;28;20320;-14
2022/07/25 11:01:21;;;;;;;2.33;2.13;;;;;;;;;;5056827;28;20237;-14
2022/07/25 11:03:48;;;;;;;3.15;2.25;;;;;;;;;;5072275;28;20237;-14
2022/07/25 11:06:16;;;;;;;2.78;2.20;;;;;;;;;;5061268;28;20233;-14
2022/07/25 11:08:45;;;;;;;3.55;2.38;;;;;;;;;;5049250;28;21768;-14
2022/07/25 11:11:13;;;;;;;5.38;2.00;;;;;;;;;;5071649;28;20257;-14
2022/07/25 11:13:41;;;;;;;2.75;1.88;;;;;;;;;;5065857;28;20606;-14
2022/07/25 11:16:08;;;;;;;2.83;2.15;;;;;;;;;;5052189;28;20238;-14
2022/07/25 11:18:36;;;;;;;3.45;1.90;;;;;;;;;;5065774;28;20715;-14
2022/07/25 11:21:04;;;;;;;2.55;1.83;;;;;;;;;;5061630;28;20252;-14
2022/07/25 11:23:33;;;;;;;2.75;2.00;;;;;;;;;;5066877;28;20336;-14
2022/07/25 11:26:05;;;;;;;2.28;1.90;;;;;;;;;;5063722;28;21053;-14
2022/07/25 11:28:39;;;;;;;2.65;1.88;;;;;;;;;;5053236;28;20234;-14
2022/07/25 11:31:07;;;;;;;2.60;1.95;;;;;;;;;;5064556;28;20259;-14
2022/07/25 11:33:34;;;;;;;2.50;1.77;;;;;;;;;;5071260;28;20237;-14
2022/07/25 11:36:05;;;;;;;2.03;1.80;;;;;;;;;;5053716;28;20238;-14
2022/07/25 11:38:33;;;;;;;2.75;1.60;;;;;;;;;;5044842;28;20321;-14
2022/07/25 11:41:00;;;;;;;2.80;1.75;;;;;;;;;;5064639;28;20315;-14
2022/07/25 11:43:29;;;;;;;2.85;1.60;;;;;;;;;;5051001;28;20236;-14
2022/07/25 11:45:57;;;;;;;1.83;1.73;;;;;;;;;;5058036;28;20234;-14
2022/07/25 11:48:29;;;;;;;2.55;1.65;;;;;;;;;;5065320;28;20222;-14
2022/07/25 11:50:57;;;;;;;4.68;1.77;;;;;;;;;;5064198;28;20236;-15
2022/07/25 11:53:24;;;;;;;4.00;1.90;;;;;;;;;;5065293;28;20237;-14
2022/07/25 11:55:52;;;;;;;2.70;1.40;;;;;;;;;;5050745;28;20230;-14
2022/07/25 11:58:19;;;;;;;2.85;1.70;;;;;;;;;;5054971;28;20233;-14
2022/07/25 12:00:48;;;;;;;2.05;1.50;;;;;;;;;;5059822;28;20226;-14
2022/07/25 12:03:16;;;;;;;2.47;1.60;;;;;;;;;;5053626;28;20324;-14
2022/07/25 12:05:47;;;;;;;2.90;1.70;;;;;;;;;;5060635;28;20308;-14
2022/07/25 12:08:14;;;;;;;4.40;2.10;;;;;;;;;;5051222;28;20376;-14
2022/07/25 12:10:42;;;;;;;3.40;1.67;;;;;;;;;;5051133;28;20248;-14
2022/07/25 12:13:10;;;;;;;2.88;1.80;;;;;;;;;;5064102;28;20238;-14
2022/07/25 12:15:37;;;;;;;2.97;1.63;;;;;;;;;;5065778;28;20234;-14
2022/07/25 12:18:08;;;;;;;4.15;1.63;;;;;;;;;;5063641;28;20799;-14
2022/07/25 12:20:35;;;;;;;3.10;1.42;;;;;;;;;;5065451;28;20238;-14
2022/07/25 12:23:04;;;;;;;2.97;1.77;;;;;;;;;;5053611;28;20246;-14
2022/07/25 12:25:31;;;;;;;4.50;1.88;;;;;;;;;;5071211;28;20894;-14
2022/07/25 12:27:58;;;;;;;3.83;1.52;;;;;;;;;;5074038;28;20708;-14
2022/07/25 12:30:26;;;;;;;2.55;1.50;;;;;;;;;;5070716;28;20234;-14
2022/07/25 12:32:53;;;;;;;8.50;1.70;;;;;;;;;;5072791;28;20232;-14
2022/07/25 12:35:22;;;;;;;2.80;1.35;;;;;;;;;;5054540;28;20245;-13
2022/07/25 12:37:50;;;;;;;3.80;1.75;;;;;;;;;;5054829;28;20609;-14
2022/07/25 12:40:17;;;;;;;3.90;1.73;;;;;;;;;;5073941;28;20673;-14
2022/07/25 12:42:44;;;;;;;3.28;1.92;;;;;;;;;;5073662;28;20271;-14
2022/07/25 12:45:13;;;;;;;4.18;1.70;;;;;;;;;;5071642;28;20260;-14
2022/07/25 12:47:40;;;;;;;4.93;1.70;;;;;;;;;;5068469;28;20221;-13
2022/07/25 12:50:08;;;;;;;2.63;1.70;;;;;;;;;;5073956;28;20672;-14
2022/07/25 12:52:37;;;;;;;3.38;1.60;;;;;;;;;;5074073;28;21030;-14
2022/07/25 12:55:05;;;;;;;2.97;1.30;;;;;;;;;;5058383;28;20248;-14
2022/07/25 12:57:33;;;;;;;3.20;1.60;;;;;;;;;;5053276;28;20236;-14
2022/07/25 13:00:01;;;;;;;3.22;2.08;;;;;;;;;;5067617;28;20237;-14
2022/07/25 13:02:28;;;;;;;3.58;1.65;;;;;;;;;;5064055;28;20234;-14
2022/07/25 13:04:56;;;;;;;5.18;1.58;;;;;;;;;;5074035;28;20333;-14
2022/07/25 13:07:23;;;;;;;5.55;1.98;;;;;;;;;;5052614;28;20689;-14
2022/07/25 13:09:52;;;;;;;4.55;1.88;;;;;;;;;;5068467;28;20252;-14
2022/07/25 13:12:19;;;;;;;3.25;1.63;;;;;;;;;;5066273;28;20233;-14
2022/07/25 13:14:47;;;;;;;3.10;1.95;;;;;;;;;;5067352;28;20703;-14
2022/07/25 13:17:14;;;;;;;3.67;1.77;;;;;;;;;;5059061;28;20700;-13
2022/07/25 13:19:42;;;;;;;5.22;2.05;;;;;;;;;;5052699;28;20345;-14
2022/07/25 13:22:09;;;;;;;5.18;1.75;;;;;;;;;;5056666;28;20245;-13
2022/07/25 13:24:38;;;;;;;2.67;1.65;;;;;;;;;;5073225;28;20233;-14
2022/07/25 13:27:06;;;;;;;4.63;2.20;;;;;;;;;;5073486;28;20246;-14
2022/07/25 13:29:34;;;;;;;3.00;1.60;;;;;;;;;;5064534;28;20329;-14
2022/07/25 13:32:02;;;;;;;3.05;1.63;;;;;;;;;;5064840;28;20233;-14
2022/07/25 13:34:30;;;;;;;4.95;2.10;;;;;;;;;;5072979;28;20245;-14
2022/07/25 13:36:58;;;;;;;4.63;1.92;;;;;;;;;;5062678;28;20233;-14
2022/07/25 13:39:26;;;;;;;4.28;2.50;;;;;;;;;;5055959;28;20226;-14
2022/07/25 13:41:53;;;;;;;4.15;2.03;;;;;;;;;;5061874;28;20697;-14
2022/07/25 13:44:22;;;;;;;5.13;2.20;;;;;;;;;;5058398;28;20256;-14
2022/07/25 13:46:49;;;;;;;5.97;2.85;;;;;;;;;;5065380;28;20684;-14
2022/07/25 13:49:17;;;;;;;4.72;2.47;;;;;;;;;;5073071;28;20234;-14
2022/07/25 13:51:44;;;;;;;6.95;2.50;;;;;;;;;;5051712;28;20236;-14
2022/07/25 13:54:12;;;;;;;3.60;2.53;;;;;;;;;;5072909;28;20324;-14
2022/07/25 13:56:40;;;;;;;6.53;2.88;;;;;;;;;;5072969;28;20321;-13
2022/07/25 13:59:07;;;;;;;5.10;2.72;;;;;;;;;;5073005;28;20324;-13
2022/07/25 14:01:37;;;;;;;4.15;2.60;;;;;;;;;;5057630;28;20230;-14
2022/07/25 14:04:05;;;;;;;5.38;2.80;;;;;;;;;;5072674;28;20229;-14
2022/07/25 14:06:33;;;;;;;8.07;2.95;;;;;;;;;;5047249;28;20227;-14
2022/07/25 14:09:00;;;;;;;6.85;3.00;;;;;;;;;;5071994;28;20240;-14
2022/07/25 14:11:29;;;;;;;5.00;2.78;;;;;;;;;;5072699;28;20272;-13
2022/07/25 14:13:57;;;;;;;7.07;2.90;;;;;;;;;;5056338;28;20329;-14
2022/07/25 14:16:24;;;;;;;6.72;2.80;;;;;;;;;;5054061;28;20321;-14
2022/07/25 14:18:54;;;;;;;7.82;2.47;;;;;;;;;;5057517;28;20315;-14
2022/07/25 14:21:21;;;;;;;5.70;2.53;;;;;;;;;;5072636;28;20249;-14
2022/07/25 14:23:49;;;;;;;3.72;2.70;;;;;;;;;;5069784;28;20744;-14
2022/07/25 14:26:16;;;;;;;6.10;3.00;;;;;;;;;;5072728;28;20575;-13
2022/07/25 14:28:44;;;;;;;6.85;2.75;;;;;;;;;;5069739;28;20357;-14
2022/07/25 14:31:11;;;;;;;6.70;2.90;;;;;;;;;;5056901;28;20233;-14
2022/07/25 14:33:39;;;;;;;4.75;2.90;;;;;;;;;;5071896;28;20233;-14
2022/07/25 14:36:09;;;;;;;5.10;2.83;;;;;;;;;;5053393;28;20398;-14
2022/07/25 14:38:36;;;;;;;4.47;2.60;;;;;;;;;;5061755;28;20320;-14
2022/07/25 14:41:04;;;;;;;5.68;2.58;;;;;;;;;;5056289;28;20611;-13
2022/07/25 14:43:38;;;;;;;4.93;3.03;;;;;;;;;;5061462;28;20228;-14
2022/07/25 14:46:06;;;;;;;5.10;2.75;;;;;;;;;;5062895;28;20237;-14
2022/07/25 14:48:34;;;;;;;6.18;2.45;;;;;;;;;;5051802;28;20238;-14
2022/07/25 14:51:02;;;;;;;5.78;2.70;;;;;;;;;;5066288;28;20225;-14